Campiña-No se requiere un especial cuidado respecto a la situación meteorológica.   -   No hay avisos

Informes METAR

 

LEZL - Sevilla, Spain
Distancia de la estación: ENE 8km
Actualización: 24/01/2021 17:30
Poco nuboso
Poco nuboso
 Viento de OSO
Viento: OSO 15 km/h
Temperatura: 17°C
Rocío: 10°C
Humedad: 64%
Barómetro: 1018 hPa
Nubes: Poco nuboso
Visibilidad: 10 km
Detalles de las nubes: Poco nuboso 1036 m
2021/01/24 16:30 LEZL 241630Z 25008KT 220V290 9999 FEW034 17/10 Q1018 NOSIG
LEMO - Morón, Spain
Distancia de la estación: SE 43km
Actualización: 24/01/2021 17:30
Poco nuboso
Poco nuboso
 Viento de OSO
Viento: OSO 15 km/h
Temperatura: 16°C
Rocío: 11°C
Humedad: 72%
Barómetro: 1018 hPa
Nubes: Poco nuboso
Visibilidad: 10 km
Detalles de las nubes: Poco nuboso 853 m
2021/01/24 16:30 LEMO 241630Z 24008KT 210V280 9999 FEW028 16/11 Q1018 NOSIG
LEJR - Jeréz, Spain
Distancia de la estación: S 71km
Actualización: 24/01/2021 17:30
Poco nuboso
Poco nuboso
 Viento de OSO
Viento: OSO 11 km/h
Temperatura: 16°C
Rocío: 11°C
Humedad: 72%
Barómetro: 1019 hPa
Nubes: Poco nuboso
Visibilidad: 10 km
Detalles de las nubes: Poco nuboso 610 m
2021/01/24 16:30 LEJR 241630Z 25006KT 200V280 9999 FEW020 16/11 Q1019
 
LERT - Rota, Spain
Distancia de la estación: SSO 89km
Actualización: 24/01/2021 17:30
Poco nuboso
Poco nuboso
 Viento de O
Viento: O 11 km/h
Temperatura: 15°C
Rocío: 12°C
Humedad: 82%
Barómetro: 1019 hPa
Nubes: Poco nuboso
Visibilidad: 10 km
Detalles de las nubes: Poco nuboso 579 m
2021/01/24 16:30 LERT 241630Z 28006KT 250V320 9999 FEW019 15/12 Q1019 NOSIG
LEMG - Málaga, Spain
Distancia de la estación: ESE 157km
Actualización: 24/01/2021 17:30
Poco nuboso
Poco nuboso
 Viento de O
Viento: O 9 km/h
Temperatura: 18°C
Rocío: 10°C
Humedad: 60%
Barómetro: 1016 hPa
Nubes: Poco nuboso
Visibilidad: 10 km
Detalles de las nubes: Poco nuboso 610 m
2021/01/24 16:30 LEMG 241630Z 28005KT 240V330 9999 FEW020 18/10 Q1016 NOSIG
LEBA - Córdoba, Spain
Distancia de la estación: ENE 115km
Actualización: 24/01/2021 17:30
Poco nuboso
Poco nuboso
 Viento de OSO
Viento: OSO 11 km/h
Temperatura: 15°C
Rocío: 9°C
Humedad: 68%
Barómetro: 1017 hPa
Nubes: Poco nuboso
Visibilidad: 10 km
Detalles de las nubes: Poco nuboso 1372 m
2021/01/24 16:30 LEBA 241630Z 24006KT 9999 FEW045 15/09 Q1017
 
LEGR - Granada, Spain
Distancia de la estación: E 198km
Actualización: 24/01/2021 17:30
Muy nuboso
Muy nuboso
 Viento de O
Viento: O 20 km/h
Temperatura: 14°C
Rocío: 7°C
Humedad: 63%
Barómetro: 1017 hPa
Nubes: Muy nuboso
Visibilidad: 10 km
Detalles de las nubes: Poco nuboso 1067 m
Muy nuboso 1219 m
2021/01/24 16:30 LEGR 241630Z 28011KT 9999 FEW035 BKN040 14/07 Q1017
LEAM - Almería, Spain
Distancia de la estación: E 326km
Actualización: 24/01/2021 17:30
Despejado
Despejado
 Viento de OSO
Viento: OSO 26 km/h
Temperatura: 16°C
Rocío: 13°C
Humedad: 83%
Barómetro: 1012 hPa
Resumen: Despejado
Visibilidad: mayor de 10 km
2021/01/24 16:30 LEAM 241630Z 24014KT 210V270 CAVOK 16/13 Q1012
LEMD - Madrid/Barajas, Spain
Distancia de la estación: NNE 402km
Actualización: 24/01/2021 17:30
Poco nuboso
Poco nuboso
 Viento de ONO
Viento: ONO 20 km/h
Temperatura: 11°C
Rocío: 2°C
Humedad: 54%
Barómetro: 1013 hPa
Nubes: Poco nuboso
Visibilidad: 10 km
Detalles de las nubes: Poco nuboso 1402 m
2021/01/24 16:30 LEMD 241630Z 29011KT 9999 FEW046 11/02 Q1013 NOSIG
 
LEVD - Valladolid, Spain
Distancia de la estación: N 492km
Actualización: 24/01/2021 17:30
Parcialmente nuboso
Parcialmente nuboso
 Viento de OSO
Viento: OSO 30 km/h
Temperatura: 8°C
Sensación térmica: 4°C
Rocío: 4°C
Humedad: 76%
Barómetro: 1013 hPa
Nubes: Parcialmente nuboso
Visibilidad: 10 km
Detalles de las nubes: Parcialmente nuboso 1067 m
2021/01/24 16:30 LEVD 241630Z 24016KT 9999 SCT035 08/04 Q1013
LEBL - Barcelona, Spain
Distancia de la estación: NE 816km
Actualización: 24/01/2021 17:30
Poco nuboso
Poco nuboso
 Viento de O
Viento: O 22 km/h
Temperatura: 14°C
Rocío: 3°C
Humedad: 48%
Barómetro: 1009 hPa
Nubes: Poco nuboso
Visibilidad: 10 km
Detalles de las nubes: Poco nuboso 1067 m
2021/01/24 16:30 LEBL 241630Z 26012KT 9999 FEW035 14/03 Q1009 NOSIG
LEVC - Valencia, Spain
Distancia de la estación: ENE 535km
Actualización: 24/01/2021 17:30
Poco nuboso
Poco nuboso
 Viento de O
Viento: O 19 km/h
Temperatura: 18°C
Rocío: 3°C
Humedad: 37%
Barómetro: 1011 hPa
Nubes: Poco nuboso
Visibilidad: 10 km
Detalles de las nubes: Poco nuboso 1067 m
2021/01/24 16:30 LEVC 241630Z 26010KT 9999 FEW035 18/03 Q1011 NOSIG